Hovedside
METAR-TAF:

METAR-TAF

Lufthavner :

Ronneby, Sverige

Ronneby lufthavn

breddegrad: 56-16N, lengdegrad: 015-17E, høyde over havet: 58 m

Gjeldene værobservasjon

Denne rapporten ble laget for 18 minutter siden, klokken 20:20 UTC
Vind 8 kt fra Vest-nordvest
Temperatur 8°C
Luftfuktighet 57%
Trykk 1022 hPa
Sikt 10 km eller mer
ingen skyer under 1500 m og ingen bygeskyer

METAR: ESDF 262020Z 30008KT CAVOK 08/M00 Q1022

Tid: 22:38 (20:38 UTC)

Varsel

Denne rapporten ble laget for 3 timer og 8 minutter siden, klokken 17:30 UTC
Varsel gyldig fra 26. klokken 18 UTC til 26. klokken 22 UTC
Vind 10 kt fra Vest-nordvest
Sikt 10 km eller mer
ingen skyer under 1500 m og ingen bygeskyer

TAF: ESDF 261730Z 2618/2622 29010KT CAVOK

Værobservasjoner og værvarsel for over 4000 flyplasser (METAR- og TAF-rapporter).

Tilgjengelige stasjoner er representert av de røde og gule prikkene på kartet.

Hold musepekeren over prikken for å se navnet på stasjonen.

Klikk så for å se værobservasjoner og -varsler.

For å forandre kartet kan du klikke på den grønne knappen med svart kryss for å zoome inn, på den grønne knappen med strek for å zoome ut, eller på de grønne pilene for å se tilstøtende kart.


METAR-TAF: